createdAt,value
2019-02-15T00:00:56.376Z,1021.71
2019-02-15T00:01:56.370Z,1021.71
2019-02-15T00:02:56.350Z,1021.69
2019-02-15T00:03:56.340Z,1021.74
2019-02-15T00:04:56.326Z,1021.76
2019-02-15T00:05:56.351Z,1021.76
2019-02-15T00:06:56.304Z,1021.73
2019-02-15T00:07:56.297Z,1021.72
2019-02-15T00:08:56.279Z,1021.71
2019-02-15T00:09:56.269Z,1021.71
2019-02-15T00:10:56.255Z,1021.73
2019-02-15T00:11:56.254Z,1021.67
2019-02-15T00:12:56.233Z,1021.68
2019-02-15T00:13:56.223Z,1021.62
2019-02-15T00:14:56.219Z,1021.64
2019-02-15T00:15:56.196Z,1021.64
2019-02-15T00:16:56.219Z,1021.64
2019-02-15T00:17:56.195Z,1021.64
2019-02-15T00:18:56.434Z,1021.63
2019-02-15T00:19:56.143Z,1021.65
2019-02-15T00:20:56.135Z,1021.64
2019-02-15T00:21:56.130Z,1021.62
2019-02-15T00:22:56.107Z,1021.63
2019-02-15T00:23:56.147Z,1021.61
2019-02-15T00:24:56.090Z,1021.63
2019-02-15T00:25:56.095Z,1021.63
2019-02-15T00:26:56.199Z,1021.58
2019-02-15T00:27:56.072Z,1021.60
2019-02-15T00:28:56.036Z,1021.59
2019-02-15T00:29:56.017Z,1021.56
2019-02-15T00:31:04.650Z,1021.56
2019-02-15T00:33:01.518Z,1021.57
2019-02-15T00:34:01.471Z,1021.54
2019-02-15T00:35:01.463Z,1021.53
2019-02-15T00:36:01.439Z,1021.52
2019-02-15T00:37:01.430Z,1021.52
2019-02-15T00:38:01.427Z,1021.48
2019-02-15T00:39:01.408Z,1021.47
2019-02-15T00:40:01.390Z,1021.49
2019-02-15T00:41:01.382Z,1021.49
2019-02-15T00:42:01.367Z,1021.45
2019-02-15T00:43:01.354Z,1021.43
2019-02-15T00:44:01.335Z,1021.42
2019-02-15T00:45:01.340Z,1021.44
2019-02-15T00:46:01.322Z,1021.40
2019-02-15T00:47:01.341Z,1021.45
2019-02-15T00:48:01.304Z,1021.46
2019-02-15T00:49:01.293Z,1021.43
2019-02-15T00:50:01.274Z,1021.44
2019-02-15T00:51:01.285Z,1021.39
2019-02-15T00:52:01.315Z,1021.41
2019-02-15T00:53:01.224Z,1021.41
2019-02-15T00:54:01.214Z,1021.43
2019-02-15T00:55:01.205Z,1021.36
2019-02-15T00:56:01.220Z,1021.44
2019-02-15T00:57:01.178Z,1021.47
2019-02-15T00:58:01.183Z,1021.42
2019-02-15T00:59:01.193Z,1021.43
2019-02-15T01:00:01.209Z,1021.39
2019-02-15T01:01:01.152Z,1021.42
2019-02-15T01:02:01.120Z,1021.43
2019-02-15T01:03:01.108Z,1021.39
2019-02-15T01:04:01.130Z,1021.42
2019-02-15T01:05:01.090Z,1021.34
2019-02-15T01:06:01.076Z,1021.36
2019-02-15T01:07:01.056Z,1021.34
2019-02-15T01:08:01.042Z,1021.31
2019-02-15T01:09:01.089Z,1021.35
2019-02-15T01:10:01.016Z,1021.40
2019-02-15T01:11:01.000Z,1021.37
2019-02-15T01:12:00.999Z,1021.36
2019-02-15T01:13:00.971Z,1021.36
2019-02-15T01:14:00.986Z,1021.35
2019-02-15T01:15:00.951Z,1021.35
2019-02-15T01:16:00.940Z,1021.37
2019-02-15T01:17:00.942Z,1021.35
2019-02-15T01:18:00.911Z,1021.32
2019-02-15T01:19:00.924Z,1021.32
2019-02-15T01:20:00.902Z,1021.31
2019-02-15T01:21:00.879Z,1021.32
2019-02-15T01:22:00.872Z,1021.30
2019-02-15T01:23:00.861Z,1021.27
2019-02-15T01:24:00.857Z,1021.29
2019-02-15T01:25:00.867Z,1021.28
2019-02-15T01:26:00.817Z,1021.27
2019-02-15T01:27:00.805Z,1021.25
2019-02-15T01:28:00.797Z,1021.24
2019-02-15T01:29:00.777Z,1021.22
2019-02-15T01:30:00.768Z,1021.17
2019-02-15T01:31:00.760Z,1021.19
2019-02-15T01:32:00.742Z,1021.25
2019-02-15T01:33:00.730Z,1021.21
2019-02-15T01:34:00.721Z,1021.18
2019-02-15T01:35:00.700Z,1021.18
2019-02-15T01:36:00.699Z,1021.17
2019-02-15T01:37:00.689Z,1021.19
2019-02-15T01:38:00.663Z,1021.14
2019-02-15T01:39:00.654Z,1021.17
2019-02-15T01:40:00.637Z,1021.13
2019-02-15T01:41:00.641Z,1021.14
2019-02-15T01:42:00.605Z,1021.12
2019-02-15T01:43:00.601Z,1021.09
2019-02-15T01:44:00.605Z,1021.09
2019-02-15T01:45:00.607Z,1021.09
2019-02-15T01:46:00.564Z,1021.09
2019-02-15T01:47:00.563Z,1021.08
2019-02-15T01:48:00.538Z,1021.07
2019-02-15T01:49:00.519Z,1021.06
2019-02-15T01:50:00.504Z,1021.03
2019-02-15T01:51:00.496Z,1021.05
2019-02-15T01:52:00.492Z,1021.02
2019-02-15T01:53:00.482Z,1020.98
2019-02-15T01:54:00.455Z,1020.98
2019-02-15T01:55:00.462Z,1020.96
2019-02-15T01:56:00.436Z,1021.00
2019-02-15T01:57:00.419Z,1020.99
2019-02-15T01:58:00.404Z,1020.96
2019-02-15T01:59:00.402Z,1020.97
2019-02-15T02:00:00.385Z,1020.95
2019-02-15T02:01:00.387Z,1020.94
2019-02-15T02:02:00.350Z,1020.94
2019-02-15T02:03:00.342Z,1020.91
2019-02-15T02:04:00.332Z,1020.93
2019-02-15T02:05:00.324Z,1020.92
2019-02-15T02:06:00.350Z,1020.92
2019-02-15T02:07:00.283Z,1020.93
2019-02-15T02:08:00.281Z,1020.93
2019-02-15T02:09:00.270Z,1020.94
2019-02-15T02:10:00.254Z,1020.96
2019-02-15T02:11:00.246Z,1020.89
2019-02-15T02:12:00.230Z,1020.87
2019-02-15T02:13:00.211Z,1020.89
2019-02-15T02:14:00.198Z,1020.86
2019-02-15T02:15:00.443Z,1020.93
2019-02-15T02:16:00.208Z,1020.85
2019-02-15T02:17:00.164Z,1020.85
2019-02-15T02:18:00.147Z,1020.80
2019-02-15T02:19:00.136Z,1020.84
2019-02-15T02:20:00.170Z,1020.78
2019-02-15T02:21:00.119Z,1020.76
2019-02-15T02:22:00.100Z,1020.77
2019-02-15T02:23:01.732Z,1020.75
2019-02-15T02:24:00.078Z,1020.69
2019-02-15T02:25:00.067Z,1020.72
2019-02-15T02:26:00.039Z,1020.67
2019-02-15T02:27:00.028Z,1020.66
2019-02-15T02:28:00.017Z,1020.66
2019-02-15T02:29:00.004Z,1020.65
2019-02-15T02:29:59.991Z,1020.65
2019-02-15T02:30:59.979Z,1020.64
2019-02-15T02:31:59.964Z,1020.63
2019-02-15T02:32:59.951Z,1020.68
2019-02-15T02:33:59.936Z,1020.73
2019-02-15T02:34:59.965Z,1020.66
2019-02-15T02:35:59.918Z,1020.68
2019-02-15T02:36:59.915Z,1020.70
2019-02-15T02:37:59.887Z,1020.68
2019-02-15T02:38:59.877Z,1020.67
2019-02-15T02:39:59.867Z,1020.67
2019-02-15T02:40:59.845Z,1020.63
2019-02-15T02:41:59.840Z,1020.66
2019-02-15T02:42:59.817Z,1020.61
2019-02-15T02:44:00.185Z,1020.63
2019-02-15T02:44:59.798Z,1020.65
2019-02-15T02:45:59.779Z,1020.66
2019-02-15T02:46:59.773Z,1020.63
2019-02-15T02:47:59.760Z,1020.65
2019-02-15T02:48:59.744Z,1020.68
2019-02-15T02:49:59.727Z,1020.69
2019-02-15T02:50:59.719Z,1020.68
2019-02-15T02:51:59.713Z,1020.71
2019-02-15T02:52:59.685Z,1020.68
2019-02-15T02:53:59.670Z,1020.73
2019-02-15T02:54:59.661Z,1020.73
2019-02-15T03:14:10.699Z,1020.69
2019-02-15T03:15:00.592Z,1020.71
2019-02-15T03:16:00.410Z,1020.68
2019-02-15T03:17:00.382Z,1020.69
2019-02-15T03:18:00.400Z,1020.67
2019-02-15T03:19:00.353Z,1020.68
2019-02-15T03:20:00.589Z,1020.66
2019-02-15T03:21:00.318Z,1020.65
2019-02-15T03:22:00.308Z,1020.72
2019-02-15T03:23:00.296Z,1020.69
2019-02-15T03:24:00.274Z,1020.67
2019-02-15T03:25:00.340Z,1020.67
2019-02-15T03:26:00.243Z,1020.65
2019-02-15T03:27:00.234Z,1020.69
2019-02-15T03:28:00.217Z,1020.69
2019-02-15T03:29:00.206Z,1020.70
2019-02-15T03:30:00.604Z,1020.68
2019-02-15T03:31:00.177Z,1020.70
2019-02-15T03:32:00.163Z,1020.67
2019-02-15T03:33:00.172Z,1020.67
2019-02-15T03:34:00.153Z,1020.64
2019-02-15T03:35:00.124Z,1020.67
2019-02-15T03:36:00.109Z,1020.64
2019-02-15T03:37:00.092Z,1020.59
2019-02-15T03:38:00.083Z,1020.57
2019-02-15T03:39:00.065Z,1020.60
2019-02-15T03:40:00.053Z,1020.61
2019-02-15T03:41:00.261Z,1020.63
2019-02-15T03:42:00.025Z,1020.62
2019-02-15T03:43:00.010Z,1020.66
2019-02-15T03:44:00.019Z,1020.62
2019-02-15T03:44:59.989Z,1020.63
2019-02-15T03:45:59.967Z,1020.65
2019-02-15T03:46:59.958Z,1020.63
2019-02-15T03:47:59.947Z,1020.67
2019-02-15T03:48:59.932Z,1020.62
2019-02-15T03:49:59.919Z,1020.62
2019-02-15T03:50:59.907Z,1020.59
2019-02-15T03:51:59.891Z,1020.63
2019-02-15T03:52:59.876Z,1020.62
2019-02-15T03:53:59.868Z,1020.58
2019-02-15T03:54:59.867Z,1020.59
2019-02-15T03:55:59.832Z,1020.56
2019-02-15T03:56:59.821Z,1020.57
2019-02-15T03:57:59.811Z,1020.59
2019-02-15T03:58:59.797Z,1020.60
2019-02-15T03:59:59.776Z,1020.54
2019-02-15T04:00:59.770Z,1020.60
2019-02-15T04:01:59.756Z,1020.60
2019-02-15T04:02:59.741Z,1020.64
2019-02-15T04:03:59.734Z,1020.67
2019-02-15T04:04:59.713Z,1020.63
2019-02-15T04:05:59.813Z,1020.66
2019-02-15T04:06:59.702Z,1020.65
2019-02-15T04:07:59.676Z,1020.66
2019-02-15T04:08:59.674Z,1020.61
2019-02-15T04:09:59.645Z,1020.65
2019-02-15T04:10:59.654Z,1020.60
2019-02-15T04:11:59.623Z,1020.62
2019-02-15T04:12:59.609Z,1020.60
2019-02-15T04:13:59.609Z,1020.59
2019-02-15T04:14:59.578Z,1020.61
2019-02-15T04:15:59.582Z,1020.63
2019-02-15T04:16:59.562Z,1020.66
2019-02-15T04:17:59.592Z,1020.66
2019-02-15T04:18:59.535Z,1020.70
2019-02-15T04:19:59.517Z,1020.71
2019-02-15T04:20:59.523Z,1020.68
2019-02-15T04:21:59.483Z,1020.69
2019-02-15T04:22:59.489Z,1020.70
2019-02-15T04:23:59.461Z,1020.70
2019-02-15T04:24:59.458Z,1020.67
2019-02-15T04:25:59.435Z,1020.65
2019-02-15T04:26:59.423Z,1020.68
2019-02-15T04:27:59.568Z,1020.70
2019-02-15T04:28:59.406Z,1020.73
2019-02-15T04:29:59.378Z,1020.70
2019-02-15T04:30:59.370Z,1020.71
2019-02-15T04:31:59.377Z,1020.72
2019-02-15T04:32:59.337Z,1020.75
2019-02-15T04:33:59.324Z,1020.77
2019-02-15T04:34:59.306Z,1020.79
2019-02-15T04:35:59.296Z,1020.76
2019-02-15T04:36:59.356Z,1020.81
2019-02-15T04:37:59.269Z,1020.82
2019-02-15T04:38:59.262Z,1020.81
2019-02-15T04:39:59.271Z,1020.83
2019-02-15T04:40:59.249Z,1020.80
2019-02-15T04:41:59.227Z,1020.82
2019-02-15T04:42:59.239Z,1020.78
2019-02-15T04:43:59.191Z,1020.80
2019-02-15T04:44:59.190Z,1020.79
2019-02-15T04:45:59.170Z,1020.80
2019-02-15T04:46:59.141Z,1020.87
2019-02-15T04:47:59.134Z,1020.84
2019-02-15T04:48:59.130Z,1020.85
2019-02-15T04:49:59.102Z,1020.87
2019-02-15T04:50:59.098Z,1020.84
2019-02-15T04:51:59.082Z,1020.83
2019-02-15T04:52:59.084Z,1020.82
2019-02-15T04:53:59.080Z,1020.81
2019-02-15T04:54:59.077Z,1020.81
2019-02-15T04:55:59.026Z,1020.81
2019-02-15T04:56:59.012Z,1020.84
2019-02-15T04:57:59.024Z,1020.88
2019-02-15T04:58:58.987Z,1020.86
2019-02-15T04:59:58.991Z,1020.91
2019-02-15T05:00:58.964Z,1020.84
2019-02-15T05:01:58.935Z,1020.87
2019-02-15T05:02:58.929Z,1020.85
2019-02-15T05:03:58.907Z,1020.88
2019-02-15T05:04:58.892Z,1020.90
2019-02-15T05:05:58.882Z,1020.87
2019-02-15T05:06:58.873Z,1020.89
2019-02-15T05:07:58.858Z,1020.89
2019-02-15T05:08:58.841Z,1020.86
2019-02-15T05:09:58.832Z,1020.88
2019-02-15T05:10:58.893Z,1020.92
2019-02-15T05:11:58.799Z,1020.91
2019-02-15T05:12:58.782Z,1020.90
2019-02-15T05:13:58.789Z,1020.90
2019-02-15T05:14:58.762Z,1020.87
2019-02-15T05:15:58.739Z,1020.84
2019-02-15T05:16:58.734Z,1020.84
2019-02-15T05:17:58.716Z,1020.90
2019-02-15T05:18:58.704Z,1020.84
2019-02-15T05:19:58.720Z,1020.82
2019-02-15T05:20:58.672Z,1020.85
2019-02-15T05:21:58.659Z,1020.86
2019-02-15T05:22:58.648Z,1020.87
2019-02-15T05:23:58.630Z,1020.85
2019-02-15T05:24:58.624Z,1020.85
2019-02-15T05:25:58.607Z,1020.86
2019-02-15T05:26:58.591Z,1020.85
2019-02-15T05:27:58.578Z,1020.86
2019-02-15T05:28:58.566Z,1020.82
2019-02-15T05:30:05.724Z,1020.83
2019-02-15T05:32:02.524Z,1020.81
2019-02-15T05:33:02.492Z,1020.82
2019-02-15T05:35:07.102Z,1020.87
2019-02-15T05:36:06.437Z,1020.85
2019-02-15T05:37:06.438Z,1020.82
2019-02-15T05:38:06.534Z,1020.81
2019-02-15T05:39:06.405Z,1020.82
2019-02-15T05:40:06.376Z,1020.78
2019-02-15T05:41:06.366Z,1020.79
2019-02-15T05:42:06.478Z,1020.87
2019-02-15T05:43:06.330Z,1020.84
2019-02-15T05:44:06.415Z,1020.85
2019-02-15T05:45:06.330Z,1020.88
2019-02-15T05:46:06.377Z,1020.87
2019-02-15T05:47:06.327Z,1020.88
2019-02-15T05:48:06.266Z,1020.87
2019-02-15T05:49:06.254Z,1020.86
2019-02-15T05:50:06.239Z,1020.81
2019-02-15T05:51:06.217Z,1020.83
2019-02-15T05:52:06.224Z,1020.87
2019-02-15T05:53:06.193Z,1020.82
2019-02-15T05:54:06.186Z,1020.85
2019-02-15T05:55:06.164Z,1020.86
2019-02-15T05:56:06.152Z,1020.87
2019-02-15T05:57:06.139Z,1020.90
2019-02-15T05:58:06.125Z,1020.84
2019-02-15T05:59:06.121Z,1020.87
2019-02-15T06:00:06.105Z,1020.91
2019-02-15T06:01:06.080Z,1020.93
2019-02-15T06:02:06.068Z,1020.90
2019-02-15T06:03:06.057Z,1020.93
2019-02-15T06:04:06.063Z,1020.95
2019-02-15T06:05:06.025Z,1020.94
2019-02-15T06:06:06.013Z,1020.96
2019-02-15T06:07:06.001Z,1020.92
2019-02-15T06:08:05.988Z,1020.96
2019-02-15T06:09:05.984Z,1020.95
2019-02-15T06:10:06.075Z,1020.93
2019-02-15T06:11:07.846Z,1020.94
2019-02-15T06:12:05.932Z,1020.92
2019-02-15T06:13:05.919Z,1020.95
2019-02-15T06:14:05.911Z,1020.98
2019-02-15T06:15:14.788Z,1020.98
2019-02-15T06:16:05.881Z,1020.96
2019-02-15T06:17:05.907Z,1020.97
2019-02-15T06:18:05.844Z,1020.95
2019-02-15T06:19:05.842Z,1020.97
2019-02-15T06:20:05.825Z,1020.98
2019-02-15T06:21:05.806Z,1020.99
2019-02-15T06:22:05.817Z,1020.98
2019-02-15T06:23:05.786Z,1021.00
2019-02-15T06:24:05.765Z,1021.01
2019-02-15T06:25:05.748Z,1020.99
2019-02-15T06:26:05.735Z,1021.04
2019-02-15T06:27:05.727Z,1021.07
2019-02-15T06:28:05.713Z,1021.09
2019-02-15T06:29:05.691Z,1021.07
2019-02-15T06:30:05.681Z,1021.07
2019-02-15T06:31:05.684Z,1021.11
2019-02-15T06:32:05.648Z,1021.13
2019-02-15T06:33:05.685Z,1021.14
2019-02-15T06:34:05.634Z,1021.13
2019-02-15T06:35:05.610Z,1021.13
2019-02-15T06:36:05.594Z,1021.11
2019-02-15T06:37:05.581Z,1021.12
2019-02-15T06:38:05.589Z,1021.18
2019-02-15T06:39:05.605Z,1021.17
2019-02-15T06:40:05.538Z,1021.18
2019-02-15T06:41:05.522Z,1021.21
2019-02-15T06:42:05.516Z,1021.19
2019-02-15T06:43:05.522Z,1021.20
2019-02-15T06:44:05.488Z,1021.24
2019-02-15T06:45:05.477Z,1021.25
2019-02-15T06:46:05.448Z,1021.23
2019-02-15T06:47:05.477Z,1021.25
2019-02-15T06:48:05.423Z,1021.24
2019-02-15T06:49:05.424Z,1021.29
2019-02-15T06:50:05.398Z,1021.27
2019-02-15T06:51:05.384Z,1021.29
2019-02-15T06:52:05.368Z,1021.36
2019-02-15T06:53:05.357Z,1021.33
2019-02-15T06:54:05.341Z,1021.31
2019-02-15T06:55:05.329Z,1021.32
2019-02-15T06:56:05.311Z,1021.34
2019-02-15T06:57:05.335Z,1021.33
2019-02-15T06:58:05.284Z,1021.32
2019-02-15T06:59:05.271Z,1021.38
2019-02-15T07:00:05.263Z,1021.40
2019-02-15T07:01:05.263Z,1021.38
2019-02-15T07:02:05.228Z,1021.42
2019-02-15T07:03:05.217Z,1021.41
2019-02-15T07:04:05.206Z,1021.41
2019-02-15T07:05:05.192Z,1021.43
2019-02-15T07:06:05.185Z,1021.39
2019-02-15T07:07:05.161Z,1021.42
2019-02-15T07:08:05.236Z,1021.43
2019-02-15T07:09:05.132Z,1021.41
2019-02-15T07:10:05.118Z,1021.45
2019-02-15T07:11:05.118Z,1021.45
2019-02-15T07:12:05.091Z,1021.47
2019-02-15T07:13:05.078Z,1021.48
2019-02-15T07:14:05.066Z,1021.46
2019-02-15T07:15:05.052Z,1021.44
2019-02-15T07:16:05.036Z,1021.44
2019-02-15T07:17:05.026Z,1021.41
2019-02-15T07:18:05.007Z,1021.41
2019-02-15T07:19:04.994Z,1021.40
2019-02-15T07:20:04.980Z,1021.41
2019-02-15T07:21:04.960Z,1021.48
2019-02-15T07:22:04.961Z,1021.48
2019-02-15T07:23:04.942Z,1021.46
2019-02-15T07:24:04.924Z,1021.50
2019-02-15T07:25:05.005Z,1021.49
2019-02-15T07:26:04.895Z,1021.47
2019-02-15T07:27:04.880Z,1021.46
2019-02-15T07:28:04.871Z,1021.43
2019-02-15T07:29:04.856Z,1021.47
2019-02-15T07:30:04.845Z,1021.48
2019-02-15T07:31:04.823Z,1021.49
2019-02-15T07:32:04.821Z,1021.47
2019-02-15T07:33:04.799Z,1021.49
2019-02-15T07:34:04.786Z,1021.49
2019-02-15T07:35:04.774Z,1021.48
2019-02-15T07:36:04.753Z,1021.50
2019-02-15T07:37:04.740Z,1021.49
2019-02-15T07:38:04.738Z,1021.46
2019-02-15T07:39:04.717Z,1021.43
2019-02-15T07:40:04.710Z,1021.44
2019-02-15T07:41:04.701Z,1021.43
2019-02-15T07:42:04.697Z,1021.48
2019-02-15T07:43:04.660Z,1021.45
2019-02-15T07:44:04.653Z,1021.44
2019-02-15T07:45:04.638Z,1021.41
2019-02-15T07:46:04.623Z,1021.46
2019-02-15T07:47:04.609Z,1021.45
2019-02-15T07:48:04.598Z,1021.45
2019-02-15T07:49:04.583Z,1021.44
2019-02-15T07:50:04.569Z,1021.45
2019-02-15T07:51:09.583Z,1021.42
2019-02-15T07:52:04.544Z,1021.44
2019-02-15T07:53:04.528Z,1021.42
2019-02-15T07:54:04.524Z,1021.41
2019-02-15T07:55:04.505Z,1021.43
2019-02-15T07:56:04.499Z,1021.37
2019-02-15T07:57:04.483Z,1021.38
2019-02-15T07:58:04.464Z,1021.39
2019-02-15T07:59:04.449Z,1021.41
2019-02-15T08:00:04.444Z,1021.36
2019-02-15T08:01:04.417Z,1021.37
2019-02-15T08:02:04.407Z,1021.41
2019-02-15T08:03:04.397Z,1021.44
2019-02-15T08:04:04.384Z,1021.43
2019-02-15T08:05:04.366Z,1021.41
2019-02-15T08:06:04.353Z,1021.42
2019-02-15T08:07:04.343Z,1021.41
2019-02-15T08:08:04.329Z,1021.38
2019-02-15T08:09:04.326Z,1021.41
2019-02-15T08:10:04.304Z,1021.44
2019-02-15T08:11:04.290Z,1021.44
2019-02-15T08:12:04.279Z,1021.43
2019-02-15T08:13:04.259Z,1021.43
2019-02-15T08:14:04.260Z,1021.43
2019-02-15T08:15:04.239Z,1021.47
2019-02-15T08:16:04.244Z,1021.46
2019-02-15T08:17:04.209Z,1021.44
2019-02-15T08:18:04.203Z,1021.43
2019-02-15T08:19:04.188Z,1021.42
2019-02-15T08:20:04.182Z,1021.44
2019-02-15T08:21:04.184Z,1021.49
2019-02-15T08:22:04.212Z,1021.43
2019-02-15T08:23:04.164Z,1021.43
2019-02-15T08:24:04.138Z,1021.44
2019-02-15T08:25:04.118Z,1021.38
2019-02-15T08:26:04.102Z,1021.40
2019-02-15T08:27:04.086Z,1021.37
2019-02-15T08:28:04.081Z,1021.40
2019-02-15T08:29:04.066Z,1021.41
2019-02-15T08:30:04.077Z,1021.38
2019-02-15T08:31:04.046Z,1021.39
2019-02-15T08:32:04.025Z,1021.40
2019-02-15T08:33:04.015Z,1021.44
2019-02-15T08:34:04.007Z,1021.38
2019-02-15T08:35:03.989Z,1021.40
2019-02-15T08:36:04.042Z,1021.39
2019-02-15T08:37:03.971Z,1021.37
2019-02-15T08:38:03.948Z,1021.37
2019-02-15T08:39:03.948Z,1021.37
2019-02-15T08:40:03.938Z,1021.33
2019-02-15T08:41:03.934Z,1021.38
2019-02-15T08:42:04.658Z,1021.36
2019-02-15T08:43:03.901Z,1021.35
2019-02-15T08:44:03.897Z,1021.32
2019-02-15T08:45:03.879Z,1021.34
2019-02-15T08:46:03.861Z,1021.36
2019-02-15T08:47:03.862Z,1021.35
2019-02-15T08:48:03.845Z,1021.35
2019-02-15T08:49:03.825Z,1021.37
2019-02-15T08:50:03.824Z,1021.34
2019-02-15T08:51:03.803Z,1021.34
2019-02-15T08:52:03.803Z,1021.35
2019-02-15T08:53:03.780Z,1021.36
2019-02-15T08:54:03.763Z,1021.37
2019-02-15T08:55:03.755Z,1021.37
2019-02-15T08:56:03.741Z,1021.32
2019-02-15T08:57:03.730Z,1021.34
2019-02-15T08:58:03.722Z,1021.33
2019-02-15T08:59:03.744Z,1021.33
2019-02-15T09:00:03.710Z,1021.30
2019-02-15T09:01:03.677Z,1021.30
2019-02-15T09:02:03.681Z,1021.30
2019-02-15T09:03:03.662Z,1021.29
2019-02-15T09:04:03.653Z,1021.25
2019-02-15T09:05:03.640Z,1021.26
2019-02-15T09:06:03.628Z,1021.28
2019-02-15T09:07:03.619Z,1021.26
2019-02-15T09:08:03.608Z,1021.23
2019-02-15T09:09:03.592Z,1021.22
2019-02-15T09:10:03.582Z,1021.22
2019-02-15T09:11:03.619Z,1021.21
2019-02-15T09:12:03.559Z,1021.17
2019-02-15T09:13:03.562Z,1021.15
2019-02-15T09:14:03.542Z,1021.17
2019-02-15T09:15:03.521Z,1021.19
2019-02-15T09:16:10.104Z,1021.18
2019-02-15T09:17:03.503Z,1021.18
2019-02-15T09:18:03.490Z,1021.20
2019-02-15T09:19:03.483Z,1021.17
2019-02-15T09:20:03.472Z,1021.18
2019-02-15T09:21:03.462Z,1021.18
2019-02-15T09:22:03.445Z,1021.21
2019-02-15T09:23:03.438Z,1021.17
2019-02-15T09:24:03.422Z,1021.21
2019-02-15T09:25:03.413Z,1021.15
2019-02-15T09:26:03.400Z,1021.17
2019-02-15T09:27:03.387Z,1021.13
2019-02-15T09:28:03.379Z,1021.10
2019-02-15T09:29:03.374Z,1021.12
2019-02-15T09:30:03.352Z,1021.13
2019-02-15T09:31:03.353Z,1021.11
2019-02-15T09:32:03.336Z,1021.13
2019-02-15T09:33:03.324Z,1021.13
2019-02-15T09:34:03.312Z,1021.13
2019-02-15T09:35:03.306Z,1021.10
2019-02-15T09:36:03.282Z,1021.15
2019-02-15T09:37:03.281Z,1021.09
2019-02-15T09:38:03.266Z,1021.13
2019-02-15T09:39:03.250Z,1021.10
2019-02-15T09:40:03.265Z,1021.10
2019-02-15T09:41:03.236Z,1021.09
2019-02-15T09:42:03.223Z,1021.11
2019-02-15T09:43:03.221Z,1021.08
2019-02-15T09:44:03.202Z,1021.07
2019-02-15T09:45:03.187Z,1021.04
2019-02-15T09:46:03.190Z,1021.06
2019-02-15T09:47:03.168Z,1021.05
2019-02-15T09:48:03.164Z,1021.02
2019-02-15T09:49:03.148Z,1021.02
2019-02-15T09:50:03.150Z,1021.04
2019-02-15T09:51:03.130Z,1021.01
2019-02-15T09:52:03.120Z,1021.02
2019-02-15T09:53:03.107Z,1021.00
2019-02-15T09:54:03.096Z,1021.00
2019-02-15T09:55:03.089Z,1020.99
2019-02-15T09:56:03.082Z,1020.98
2019-02-15T09:57:03.073Z,1020.97
2019-02-15T09:58:03.058Z,1021.02
2019-02-15T09:59:03.045Z,1020.98
2019-02-15T10:00:03.042Z,1021.03
2019-02-15T10:01:03.024Z,1021.01
2019-02-15T10:02:03.012Z,1021.03
2019-02-15T10:03:03.005Z,1021.00
2019-02-15T10:04:03.009Z,1020.98
2019-02-15T10:05:02.983Z,1021.00
2019-02-15T10:06:02.973Z,1020.98
2019-02-15T10:07:02.963Z,1020.93
2019-02-15T10:08:02.955Z,1020.97
2019-02-15T10:09:02.936Z,1020.97
2019-02-15T10:10:02.933Z,1020.94
2019-02-15T10:11:02.925Z,1020.97
2019-02-15T10:12:02.914Z,1020.95
2019-02-15T10:13:02.904Z,1021.00
2019-02-15T10:14:02.891Z,1020.97
2019-02-15T10:15:02.880Z,1020.96
2019-02-15T10:16:02.875Z,1020.97
2019-02-15T10:17:02.862Z,1020.97
2019-02-15T10:18:02.854Z,1020.96
2019-02-15T10:19:02.840Z,1020.94
2019-02-15T10:20:02.863Z,1020.94
2019-02-15T10:21:02.825Z,1020.92
2019-02-15T10:22:02.815Z,1020.92
2019-02-15T10:23:02.811Z,1020.90
2019-02-15T10:24:02.799Z,1020.92
2019-02-15T10:25:02.789Z,1020.90
2019-02-15T10:26:02.776Z,1020.99
2019-02-15T10:27:02.769Z,1020.92
2019-02-15T10:28:02.756Z,1020.92
2019-02-15T10:29:02.749Z,1020.96
2019-02-15T10:30:02.797Z,1020.92
2019-02-15T10:31:02.726Z,1020.95
2019-02-15T10:32:02.723Z,1020.88
2019-02-15T10:33:02.702Z,1020.87
2019-02-15T10:34:02.735Z,1020.86
2019-02-15T10:35:02.694Z,1020.82
2019-02-15T10:36:02.683Z,1020.79
2019-02-15T10:37:02.675Z,1020.77
2019-02-15T10:38:02.663Z,1020.81
2019-02-15T10:39:02.647Z,1020.82
2019-02-15T10:40:02.651Z,1020.82
2019-02-15T10:41:02.635Z,1020.78
2019-02-15T10:42:02.623Z,1020.79
2019-02-15T10:43:02.617Z,1020.75
2019-02-15T10:44:02.609Z,1020.78
2019-02-15T10:45:02.619Z,1020.75
2019-02-15T10:46:02.589Z,1020.76
2019-02-15T10:47:02.599Z,1020.75
2019-02-15T10:48:02.568Z,1020.72
2019-02-15T10:49:02.560Z,1020.76
2019-02-15T10:50:02.550Z,1020.76
2019-02-15T10:51:02.545Z,1020.79
2019-02-15T10:52:02.532Z,1020.74
2019-02-15T10:53:02.548Z,1020.71
2019-02-15T10:54:02.513Z,1020.70
2019-02-15T10:55:02.513Z,1020.73
2019-02-15T10:56:02.500Z,1020.72
2019-02-15T10:57:02.489Z,1020.72
2019-02-15T10:58:02.491Z,1020.75
2019-02-15T10:59:02.469Z,1020.68
2019-02-15T11:00:02.456Z,1020.64
2019-02-15T11:01:02.448Z,1020.64
2019-02-15T11:02:02.441Z,1020.64
2019-02-15T11:03:02.428Z,1020.58
2019-02-15T11:04:02.446Z,1020.62
2019-02-15T11:05:02.416Z,1020.56
2019-02-15T11:06:02.408Z,1020.55
2019-02-15T11:07:02.399Z,1020.56
2019-02-15T11:08:02.385Z,1020.51
2019-02-15T11:09:02.381Z,1020.50
2019-02-15T11:10:02.378Z,1020.53
2019-02-15T11:11:02.363Z,1020.46
2019-02-15T11:12:02.364Z,1020.49
2019-02-15T11:13:02.344Z,1020.46
2019-02-15T11:14:02.334Z,1020.41
2019-02-15T11:15:02.328Z,1020.37
2019-02-15T11:16:02.325Z,1020.36
2019-02-15T11:17:03.174Z,1020.35
2019-02-15T11:18:02.311Z,1020.36
2019-02-15T11:19:02.314Z,1020.36
2019-02-15T11:20:02.286Z,1020.33
2019-02-15T11:21:02.281Z,1020.34
2019-02-15T11:22:02.271Z,1020.32
2019-02-15T11:23:02.264Z,1020.30
2019-02-15T11:24:02.258Z,1020.30
2019-02-15T11:25:02.262Z,1020.30
2019-02-15T11:26:02.242Z,1020.26
2019-02-15T11:27:02.228Z,1020.26
2019-02-15T11:28:02.223Z,1020.25
2019-02-15T11:29:02.217Z,1020.25
2019-02-15T11:30:02.206Z,1020.24
2019-02-15T11:31:02.196Z,1020.21
2019-02-15T11:32:02.206Z,1020.21
2019-02-15T11:33:02.181Z,1020.22
2019-02-15T11:34:02.186Z,1020.19
2019-02-15T11:35:02.166Z,1020.19
2019-02-15T11:36:02.161Z,1020.18
2019-02-15T11:37:02.153Z,1020.17
2019-02-15T11:38:02.136Z,1020.12
2019-02-15T11:39:02.143Z,1020.13
2019-02-15T11:40:02.133Z,1020.11
2019-02-15T11:41:10.697Z,1020.10
2019-02-15T11:42:02.109Z,1020.06
2019-02-15T11:43:02.101Z,1020.02
2019-02-15T11:44:02.090Z,1020.02
2019-02-15T11:45:02.090Z,1020.02
2019-02-15T11:46:02.074Z,1019.97
2019-02-15T11:47:02.073Z,1019.97
2019-02-15T11:48:02.061Z,1019.99
2019-02-15T11:49:02.055Z,1019.95
2019-02-15T11:50:02.045Z,1019.94
2019-02-15T11:51:02.033Z,1019.92
2019-02-15T11:52:02.033Z,1019.94
2019-02-15T11:53:02.022Z,1019.90
2019-02-15T11:54:02.066Z,1019.88
2019-02-15T11:55:02.006Z,1019.86
2019-02-15T11:56:01.999Z,1019.85
2019-02-15T11:57:02.090Z,1019.83
2019-02-15T11:58:01.999Z,1019.79
2019-02-15T11:59:01.974Z,1019.80
2019-02-15T12:00:01.969Z,1019.74
2019-02-15T12:01:01.962Z,1019.77
2019-02-15T12:02:06.252Z,1019.75
2019-02-15T12:03:01.953Z,1019.74
2019-02-15T12:04:01.941Z,1019.72
2019-02-15T12:05:01.936Z,1019.69
2019-02-15T12:06:03.782Z,1019.63
2019-02-15T12:07:01.919Z,1019.62
2019-02-15T12:08:01.923Z,1019.61
2019-02-15T12:09:01.909Z,1019.60
2019-02-15T12:10:01.893Z,1019.61
2019-02-15T12:11:01.888Z,1019.59
2019-02-15T12:12:10.132Z,1019.62
2019-02-15T12:13:01.883Z,1019.58
2019-02-15T12:14:01.868Z,1019.56
2019-02-15T12:15:02.016Z,1019.58
2019-02-15T12:16:01.858Z,1019.54
2019-02-15T12:17:05.661Z,1019.53
2019-02-15T12:18:01.840Z,1019.53
2019-02-15T12:19:01.835Z,1019.52
2019-02-15T12:20:01.828Z,1019.52
2019-02-15T12:21:01.820Z,1019.46
2019-02-15T12:22:01.813Z,1019.44
2019-02-15T12:23:01.805Z,1019.43
2019-02-15T12:24:01.798Z,1019.41
2019-02-15T12:25:01.790Z,1019.40
2019-02-15T12:26:01.800Z,1019.36
2019-02-15T12:27:01.781Z,1019.36